sensor_id;sensor_type;location;lat;lon;timestamp;P1;durP1;ratioP1;P2;durP2;ratioP2
74152;SDS011;62505;46.070;14.492;2023-04-06T00:00:38;3.95;;;2.70;;
74152;SDS011;62505;46.070;14.492;2023-04-06T00:03:06;4.85;;;3.05;;
74152;SDS011;62505;46.070;14.492;2023-04-06T00:05:33;5.30;;;3.42;;
74152;SDS011;62505;46.070;14.492;2023-04-06T00:08:00;4.93;;;3.20;;
74152;SDS011;62505;46.070;14.492;2023-04-06T00:10:27;4.32;;;2.90;;
74152;SDS011;62505;46.070;14.492;2023-04-06T00:12:55;4.63;;;3.15;;
74152;SDS011;62505;46.070;14.492;2023-04-06T00:15:22;4.55;;;2.88;;
74152;SDS011;62505;46.070;14.492;2023-04-06T00:17:50;4.13;;;3.20;;
74152;SDS011;62505;46.070;14.492;2023-04-06T00:20:17;4.20;;;3.05;;
74152;SDS011;62505;46.070;14.492;2023-04-06T00:22:45;3.65;;;2.90;;
74152;SDS011;62505;46.070;14.492;2023-04-06T00:25:12;3.70;;;2.80;;
74152;SDS011;62505;46.070;14.492;2023-04-06T00:27:40;4.80;;;3.03;;
74152;SDS011;62505;46.070;14.492;2023-04-06T00:30:09;4.28;;;2.83;;
74152;SDS011;62505;46.070;14.492;2023-04-06T00:32:37;6.43;;;3.20;;
74152;SDS011;62505;46.070;14.492;2023-04-06T00:35:04;4.97;;;3.20;;
74152;SDS011;62505;46.070;14.492;2023-04-06T00:37:32;4.00;;;2.88;;
74152;SDS011;62505;46.070;14.492;2023-04-06T00:39:59;4.85;;;2.97;;
74152;SDS011;62505;46.070;14.492;2023-04-06T00:42:27;4.55;;;3.33;;
74152;SDS011;62505;46.070;14.492;2023-04-06T00:44:54;4.13;;;3.00;;
74152;SDS011;62505;46.070;14.492;2023-04-06T00:47:25;4.25;;;3.05;;
74152;SDS011;62505;46.070;14.492;2023-04-06T00:49:52;5.70;;;3.10;;
74152;SDS011;62505;46.070;14.492;2023-04-06T00:52:20;5.88;;;2.90;;
74152;SDS011;62505;46.070;14.492;2023-04-06T00:54:50;4.55;;;2.78;;
74152;SDS011;62505;46.070;14.492;2023-04-06T00:57:17;3.55;;;2.88;;
74152;SDS011;62505;46.070;14.492;2023-04-06T00:59:44;4.47;;;3.08;;
74152;SDS011;62505;46.070;14.492;2023-04-06T01:02:12;3.85;;;3.00;;
74152;SDS011;62505;46.070;14.492;2023-04-06T01:04:41;5.53;;;3.03;;
74152;SDS011;62505;46.070;14.492;2023-04-06T01:07:08;4.25;;;2.85;;
74152;SDS011;62505;46.070;14.492;2023-04-06T01:09:35;4.97;;;3.08;;
74152;SDS011;62505;46.070;14.492;2023-04-06T01:12:02;4.97;;;3.13;;
74152;SDS011;62505;46.070;14.492;2023-04-06T01:14:30;4.57;;;3.08;;
74152;SDS011;62505;46.070;14.492;2023-04-06T01:16:57;4.65;;;3.20;;
74152;SDS011;62505;46.070;14.492;2023-04-06T01:19:26;3.90;;;2.80;;
74152;SDS011;62505;46.070;14.492;2023-04-06T01:21:55;3.50;;;2.80;;
74152;SDS011;62505;46.070;14.492;2023-04-06T01:24:24;5.93;;;3.53;;
74152;SDS011;62505;46.070;14.492;2023-04-06T01:26:51;3.78;;;2.88;;
74152;SDS011;62505;46.070;14.492;2023-04-06T01:29:18;4.82;;;3.08;;
74152;SDS011;62505;46.070;14.492;2023-04-06T01:31:45;4.13;;;2.83;;
74152;SDS011;62505;46.070;14.492;2023-04-06T01:34:12;3.92;;;3.08;;
74152;SDS011;62505;46.070;14.492;2023-04-06T01:36:39;4.55;;;3.00;;
74152;SDS011;62505;46.070;14.492;2023-04-06T01:39:06;4.03;;;2.58;;
74152;SDS011;62505;46.070;14.492;2023-04-06T01:41:34;4.30;;;2.95;;
74152;SDS011;62505;46.070;14.492;2023-04-06T01:44:01;5.18;;;3.20;;
74152;SDS011;62505;46.070;14.492;2023-04-06T01:46:29;3.63;;;2.72;;
74152;SDS011;62505;46.070;14.492;2023-04-06T01:48:56;3.90;;;2.88;;
74152;SDS011;62505;46.070;14.492;2023-04-06T01:51:23;4.15;;;3.08;;
74152;SDS011;62505;46.070;14.492;2023-04-06T01:53:51;4.50;;;3.00;;
74152;SDS011;62505;46.070;14.492;2023-04-06T01:56:18;4.00;;;2.97;;
74152;SDS011;62505;46.070;14.492;2023-04-06T01:58:46;4.00;;;3.00;;
74152;SDS011;62505;46.070;14.492;2023-04-06T02:01:13;4.20;;;3.08;;
74152;SDS011;62505;46.070;14.492;2023-04-06T02:03:40;3.50;;;2.70;;
74152;SDS011;62505;46.070;14.492;2023-04-06T02:06:07;3.72;;;2.90;;
74152;SDS011;62505;46.070;14.492;2023-04-06T02:08:35;5.63;;;3.58;;
74152;SDS011;62505;46.070;14.492;2023-04-06T02:11:02;4.25;;;3.10;;
74152;SDS011;62505;46.070;14.492;2023-04-06T02:13:29;4.50;;;3.08;;
74152;SDS011;62505;46.070;14.492;2023-04-06T02:15:57;4.90;;;2.90;;
74152;SDS011;62505;46.070;14.492;2023-04-06T02:18:24;3.65;;;2.80;;
74152;SDS011;62505;46.070;14.492;2023-04-06T02:20:52;3.40;;;2.78;;
74152;SDS011;62505;46.070;14.492;2023-04-06T02:23:20;4.68;;;3.25;;
74152;SDS011;62505;46.070;14.492;2023-04-06T02:25:47;5.05;;;2.80;;
74152;SDS011;62505;46.070;14.492;2023-04-06T02:28:14;4.40;;;2.90;;
74152;SDS011;62505;46.070;14.492;2023-04-06T02:30:41;4.22;;;3.28;;
74152;SDS011;62505;46.070;14.492;2023-04-06T02:33:09;4.40;;;2.63;;
74152;SDS011;62505;46.070;14.492;2023-04-06T02:35:36;3.75;;;2.55;;
74152;SDS011;62505;46.070;14.492;2023-04-06T02:38:03;3.75;;;2.83;;
74152;SDS011;62505;46.070;14.492;2023-04-06T02:40:30;4.97;;;2.80;;
74152;SDS011;62505;46.070;14.492;2023-04-06T02:42:57;5.07;;;3.30;;
74152;SDS011;62505;46.070;14.492;2023-04-06T02:45:24;4.55;;;2.97;;
74152;SDS011;62505;46.070;14.492;2023-04-06T02:47:51;3.75;;;2.67;;
74152;SDS011;62505;46.070;14.492;2023-04-06T02:50:19;4.70;;;3.10;;
74152;SDS011;62505;46.070;14.492;2023-04-06T02:52:46;3.50;;;2.60;;
74152;SDS011;62505;46.070;14.492;2023-04-06T02:55:14;3.90;;;2.80;;
74152;SDS011;62505;46.070;14.492;2023-04-06T02:57:41;3.63;;;2.83;;
74152;SDS011;62505;46.070;14.492;2023-04-06T03:00:08;3.70;;;2.80;;
74152;SDS011;62505;46.070;14.492;2023-04-06T03:02:36;4.20;;;2.97;;
74152;SDS011;62505;46.070;14.492;2023-04-06T03:05:03;4.07;;;2.78;;
74152;SDS011;62505;46.070;14.492;2023-04-06T03:07:32;3.65;;;2.58;;
74152;SDS011;62505;46.070;14.492;2023-04-06T03:09:59;3.45;;;2.80;;
74152;SDS011;62505;46.070;14.492;2023-04-06T03:12:26;4.13;;;3.42;;
74152;SDS011;62505;46.070;14.492;2023-04-06T03:14:53;3.00;;;2.50;;
74152;SDS011;62505;46.070;14.492;2023-04-06T03:17:20;4.45;;;3.00;;
74152;SDS011;62505;46.070;14.492;2023-04-06T03:19:47;3.45;;;2.80;;
74152;SDS011;62505;46.070;14.492;2023-04-06T03:22:14;4.47;;;2.63;;
74152;SDS011;62505;46.070;14.492;2023-04-06T03:24:43;3.38;;;2.60;;
74152;SDS011;62505;46.070;14.492;2023-04-06T03:27:10;3.88;;;2.75;;
74152;SDS011;62505;46.070;14.492;2023-04-06T03:29:37;4.05;;;2.58;;
74152;SDS011;62505;46.070;14.492;2023-04-06T03:32:04;4.88;;;3.10;;
74152;SDS011;62505;46.070;14.492;2023-04-06T03:34:31;3.63;;;2.60;;
74152;SDS011;62505;46.070;14.492;2023-04-06T03:36:58;2.78;;;2.50;;
74152;SDS011;62505;46.070;14.492;2023-04-06T03:39:25;3.80;;;2.80;;
74152;SDS011;62505;46.070;14.492;2023-04-06T03:41:53;3.95;;;2.95;;
74152;SDS011;62505;46.070;14.492;2023-04-06T03:44:20;3.55;;;2.65;;
74152;SDS011;62505;46.070;14.492;2023-04-06T03:46:48;3.05;;;2.60;;
74152;SDS011;62505;46.070;14.492;2023-04-06T03:49:15;3.45;;;2.55;;
74152;SDS011;62505;46.070;14.492;2023-04-06T03:51:42;3.33;;;2.58;;
74152;SDS011;62505;46.070;14.492;2023-04-06T03:54:09;3.40;;;2.72;;
74152;SDS011;62505;46.070;14.492;2023-04-06T03:56:36;4.13;;;2.80;;
74152;SDS011;62505;46.070;14.492;2023-04-06T03:59:04;3.85;;;2.72;;
74152;SDS011;62505;46.070;14.492;2023-04-06T04:01:31;3.40;;;2.60;;
74152;SDS011;62505;46.070;14.492;2023-04-06T04:03:58;3.78;;;2.45;;
74152;SDS011;62505;46.070;14.492;2023-04-06T04:06:25;4.30;;;2.97;;
74152;SDS011;62505;46.070;14.492;2023-04-06T04:08:52;4.03;;;2.95;;
74152;SDS011;62505;46.070;14.492;2023-04-06T04:11:19;4.75;;;2.75;;
74152;SDS011;62505;46.070;14.492;2023-04-06T04:13:46;3.75;;;2.75;;
74152;SDS011;62505;46.070;14.492;2023-04-06T04:16:15;3.90;;;2.80;;
74152;SDS011;62505;46.070;14.492;2023-04-06T04:18:42;3.80;;;2.90;;
74152;SDS011;62505;46.070;14.492;2023-04-06T04:21:10;3.05;;;2.42;;
74152;SDS011;62505;46.070;14.492;2023-04-06T04:23:37;4.38;;;3.10;;
74152;SDS011;62505;46.070;14.492;2023-04-06T04:26:04;4.13;;;3.22;;
74152;SDS011;62505;46.070;14.492;2023-04-06T04:28:31;4.32;;;2.80;;
74152;SDS011;62505;46.070;14.492;2023-04-06T04:30:58;5.03;;;2.92;;
74152;SDS011;62505;46.070;14.492;2023-04-06T04:33:27;3.83;;;2.90;;
74152;SDS011;62505;46.070;14.492;2023-04-06T04:35:54;3.80;;;2.53;;
74152;SDS011;62505;46.070;14.492;2023-04-06T04:38:21;6.60;;;2.97;;
74152;SDS011;62505;46.070;14.492;2023-04-06T04:40:48;4.13;;;3.00;;
74152;SDS011;62505;46.070;14.492;2023-04-06T04:43:15;3.88;;;2.80;;
74152;SDS011;62505;46.070;14.492;2023-04-06T04:45:42;5.68;;;3.08;;
74152;SDS011;62505;46.070;14.492;2023-04-06T04:48:09;4.50;;;3.35;;
74152;SDS011;62505;46.070;14.492;2023-04-06T04:50:37;5.13;;;3.00;;
74152;SDS011;62505;46.070;14.492;2023-04-06T04:53:04;5.85;;;2.58;;
74152;SDS011;62505;46.070;14.492;2023-04-06T04:55:32;3.38;;;2.38;;
74152;SDS011;62505;46.070;14.492;2023-04-06T04:57:59;3.58;;;2.78;;
74152;SDS011;62505;46.070;14.492;2023-04-06T05:00:27;4.22;;;2.90;;
74152;SDS011;62505;46.070;14.492;2023-04-06T05:02:54;6.18;;;3.10;;
74152;SDS011;62505;46.070;14.492;2023-04-06T05:05:21;6.28;;;3.60;;
74152;SDS011;62505;46.070;14.492;2023-04-06T05:07:49;6.13;;;3.83;;
74152;SDS011;62505;46.070;14.492;2023-04-06T05:10:17;6.03;;;3.55;;
74152;SDS011;62505;46.070;14.492;2023-04-06T05:12:44;10.88;;;3.95;;
74152;SDS011;62505;46.070;14.492;2023-04-06T05:15:11;6.03;;;3.38;;
74152;SDS011;62505;46.070;14.492;2023-04-06T05:17:38;6.53;;;3.50;;
74152;SDS011;62505;46.070;14.492;2023-04-06T05:20:05;5.60;;;3.65;;
74152;SDS011;62505;46.070;14.492;2023-04-06T05:22:33;5.10;;;3.50;;
74152;SDS011;62505;46.070;14.492;2023-04-06T05:25:02;6.97;;;3.72;;
74152;SDS011;62505;46.070;14.492;2023-04-06T05:27:30;6.97;;;3.35;;
74152;SDS011;62505;46.070;14.492;2023-04-06T05:29:57;5.38;;;3.25;;
74152;SDS011;62505;46.070;14.492;2023-04-06T05:32:24;6.57;;;4.03;;
74152;SDS011;62505;46.070;14.492;2023-04-06T05:34:51;8.13;;;3.40;;
74152;SDS011;62505;46.070;14.492;2023-04-06T05:37:18;8.98;;;3.17;;
74152;SDS011;62505;46.070;14.492;2023-04-06T05:39:45;5.38;;;3.22;;
74152;SDS011;62505;46.070;14.492;2023-04-06T05:42:14;8.25;;;4.00;;
74152;SDS011;62505;46.070;14.492;2023-04-06T05:44:41;7.65;;;3.60;;
74152;SDS011;62505;46.070;14.492;2023-04-06T05:47:08;5.32;;;2.90;;
74152;SDS011;62505;46.070;14.492;2023-04-06T05:49:35;5.88;;;3.75;;
74152;SDS011;62505;46.070;14.492;2023-04-06T05:52:02;8.40;;;3.30;;
74152;SDS011;62505;46.070;14.492;2023-04-06T05:54:30;6.47;;;3.50;;
74152;SDS011;62505;46.070;14.492;2023-04-06T05:56:57;5.03;;;3.45;;
74152;SDS011;62505;46.070;14.492;2023-04-06T05:59:25;6.28;;;3.28;;
74152;SDS011;62505;46.070;14.492;2023-04-06T06:01:52;4.72;;;3.13;;
74152;SDS011;62505;46.070;14.492;2023-04-06T06:04:19;4.45;;;2.90;;
74152;SDS011;62505;46.070;14.492;2023-04-06T06:06:47;5.65;;;3.10;;
74152;SDS011;62505;46.070;14.492;2023-04-06T06:09:14;5.65;;;3.47;;
74152;SDS011;62505;46.070;14.492;2023-04-06T06:11:41;7.78;;;3.85;;
74152;SDS011;62505;46.070;14.492;2023-04-06T06:14:08;6.22;;;3.13;;
74152;SDS011;62505;46.070;14.492;2023-04-06T06:16:36;6.68;;;3.50;;
74152;SDS011;62505;46.070;14.492;2023-04-06T06:19:03;5.07;;;2.95;;
74152;SDS011;62505;46.070;14.492;2023-04-06T06:21:30;6.03;;;3.38;;
74152;SDS011;62505;46.070;14.492;2023-04-06T06:23:57;6.85;;;3.70;;
74152;SDS011;62505;46.070;14.492;2023-04-06T06:26:25;7.30;;;3.40;;
74152;SDS011;62505;46.070;14.492;2023-04-06T06:28:52;7.05;;;3.40;;
74152;SDS011;62505;46.070;14.492;2023-04-06T06:31:19;6.55;;;3.58;;
74152;SDS011;62505;46.070;14.492;2023-04-06T06:33:49;7.45;;;3.90;;
74152;SDS011;62505;46.070;14.492;2023-04-06T06:36:16;5.03;;;3.15;;
74152;SDS011;62505;46.070;14.492;2023-04-06T06:38:43;5.93;;;3.60;;
74152;SDS011;62505;46.070;14.492;2023-04-06T06:41:11;6.38;;;3.28;;
74152;SDS011;62505;46.070;14.492;2023-04-06T06:43:38;4.88;;;3.30;;
74152;SDS011;62505;46.070;14.492;2023-04-06T06:46:05;7.57;;;3.42;;
74152;SDS011;62505;46.070;14.492;2023-04-06T06:48:32;4.28;;;2.88;;
74152;SDS011;62505;46.070;14.492;2023-04-06T06:51:01;7.20;;;3.20;;
74152;SDS011;62505;46.070;14.492;2023-04-06T06:53:28;4.53;;;3.00;;
74152;SDS011;62505;46.070;14.492;2023-04-06T06:55:55;6.70;;;2.95;;
74152;SDS011;62505;46.070;14.492;2023-04-06T06:58:22;5.75;;;3.30;;
74152;SDS011;62505;46.070;14.492;2023-04-06T07:00:49;5.68;;;3.15;;
74152;SDS011;62505;46.070;14.492;2023-04-06T07:03:16;4.90;;;3.30;;
74152;SDS011;62505;46.070;14.492;2023-04-06T07:05:46;5.68;;;3.40;;
74152;SDS011;62505;46.070;14.492;2023-04-06T07:08:19;6.20;;;3.03;;
74152;SDS011;62505;46.070;14.492;2023-04-06T07:10:47;5.15;;;3.20;;
74152;SDS011;62505;46.070;14.492;2023-04-06T07:13:15;4.90;;;3.17;;
74152;SDS011;62505;46.070;14.492;2023-04-06T07:15:46;5.53;;;3.13;;
74152;SDS011;62505;46.070;14.492;2023-04-06T07:18:13;5.90;;;3.45;;
74152;SDS011;62505;46.070;14.492;2023-04-06T07:20:41;6.03;;;3.30;;
74152;SDS011;62505;46.070;14.492;2023-04-06T07:23:08;4.22;;;3.08;;
74152;SDS011;62505;46.070;14.492;2023-04-06T07:25:36;4.88;;;3.22;;
74152;SDS011;62505;46.070;14.492;2023-04-06T07:28:03;3.88;;;2.55;;
74152;SDS011;62505;46.070;14.492;2023-04-06T07:30:30;4.95;;;3.05;;
74152;SDS011;62505;46.070;14.492;2023-04-06T07:32:57;5.68;;;3.17;;
74152;SDS011;62505;46.070;14.492;2023-04-06T07:35:26;8.35;;;3.00;;
74152;SDS011;62505;46.070;14.492;2023-04-06T07:37:55;6.85;;;3.40;;
74152;SDS011;62505;46.070;14.492;2023-04-06T07:40:22;8.45;;;3.30;;
74152;SDS011;62505;46.070;14.492;2023-04-06T07:42:52;4.97;;;3.20;;
74152;SDS011;62505;46.070;14.492;2023-04-06T07:45:19;4.90;;;3.13;;
74152;SDS011;62505;46.070;14.492;2023-04-06T07:47:46;4.30;;;2.97;;
74152;SDS011;62505;46.070;14.492;2023-04-06T07:50:13;5.38;;;3.20;;
74152;SDS011;62505;46.070;14.492;2023-04-06T07:52:41;5.32;;;3.45;;
74152;SDS011;62505;46.070;14.492;2023-04-06T07:55:08;4.50;;;2.78;;
74152;SDS011;62505;46.070;14.492;2023-04-06T07:57:35;3.63;;;2.90;;
74152;SDS011;62505;46.070;14.492;2023-04-06T08:00:04;5.10;;;3.28;;
74152;SDS011;62505;46.070;14.492;2023-04-06T08:02:34;4.68;;;2.95;;
74152;SDS011;62505;46.070;14.492;2023-04-06T08:05:01;3.20;;;2.60;;
74152;SDS011;62505;46.070;14.492;2023-04-06T08:07:28;5.38;;;3.15;;
74152;SDS011;62505;46.070;14.492;2023-04-06T08:09:55;5.30;;;3.08;;
74152;SDS011;62505;46.070;14.492;2023-04-06T08:12:22;5.00;;;3.08;;
74152;SDS011;62505;46.070;14.492;2023-04-06T08:14:49;6.00;;;3.17;;
74152;SDS011;62505;46.070;14.492;2023-04-06T08:17:18;5.70;;;2.80;;
74152;SDS011;62505;46.070;14.492;2023-04-06T08:19:46;4.50;;;2.83;;
74152;SDS011;62505;46.070;14.492;2023-04-06T08:22:13;4.90;;;3.00;;
74152;SDS011;62505;46.070;14.492;2023-04-06T08:24:40;4.70;;;3.30;;
74152;SDS011;62505;46.070;14.492;2023-04-06T08:27:07;4.43;;;2.92;;
74152;SDS011;62505;46.070;14.492;2023-04-06T08:29:34;6.47;;;3.33;;
74152;SDS011;62505;46.070;14.492;2023-04-06T08:32:01;4.20;;;3.10;;
74152;SDS011;62505;46.070;14.492;2023-04-06T08:34:31;3.45;;;2.40;;
74152;SDS011;62505;46.070;14.492;2023-04-06T08:36:58;4.82;;;3.05;;
74152;SDS011;62505;46.070;14.492;2023-04-06T08:39:25;4.32;;;3.03;;
74152;SDS011;62505;46.070;14.492;2023-04-06T08:41:53;4.40;;;2.97;;
74152;SDS011;62505;46.070;14.492;2023-04-06T08:44:22;4.07;;;2.92;;
74152;SDS011;62505;46.070;14.492;2023-04-06T08:46:49;4.35;;;2.60;;
74152;SDS011;62505;46.070;14.492;2023-04-06T08:49:17;5.05;;;3.22;;
74152;SDS011;62505;46.070;14.492;2023-04-06T08:51:46;4.50;;;2.90;;
74152;SDS011;62505;46.070;14.492;2023-04-06T08:54:14;4.25;;;2.75;;
74152;SDS011;62505;46.070;14.492;2023-04-06T08:56:41;5.40;;;2.88;;
74152;SDS011;62505;46.070;14.492;2023-04-06T08:59:09;3.38;;;2.65;;
74152;SDS011;62505;46.070;14.492;2023-04-06T09:01:38;4.47;;;3.05;;
74152;SDS011;62505;46.070;14.492;2023-04-06T09:04:07;4.43;;;2.95;;
74152;SDS011;62505;46.070;14.492;2023-04-06T09:06:36;4.40;;;2.97;;
74152;SDS011;62505;46.070;14.492;2023-04-06T09:09:05;5.43;;;3.00;;
74152;SDS011;62505;46.070;14.492;2023-04-06T09:11:41;3.45;;;2.97;;
74152;SDS011;62505;46.070;14.492;2023-04-06T09:14:09;3.92;;;2.83;;
74152;SDS011;62505;46.070;14.492;2023-04-06T09:16:38;3.72;;;2.83;;
74152;SDS011;62505;46.070;14.492;2023-04-06T09:19:06;4.75;;;3.05;;
74152;SDS011;62505;46.070;14.492;2023-04-06T09:21:34;6.30;;;2.97;;
74152;SDS011;62505;46.070;14.492;2023-04-06T09:24:02;4.13;;;2.80;;
74152;SDS011;62505;46.070;14.492;2023-04-06T09:26:31;5.65;;;3.65;;
74152;SDS011;62505;46.070;14.492;2023-04-06T09:28:59;3.53;;;2.90;;
74152;SDS011;62505;46.070;14.492;2023-04-06T09:31:27;4.10;;;2.70;;
74152;SDS011;62505;46.070;14.492;2023-04-06T09:33:55;3.78;;;2.78;;
74152;SDS011;62505;46.070;14.492;2023-04-06T09:36:29;4.60;;;2.85;;
74152;SDS011;62505;46.070;14.492;2023-04-06T09:38:58;4.78;;;2.70;;
74152;SDS011;62505;46.070;14.492;2023-04-06T09:41:31;3.42;;;2.63;;
74152;SDS011;62505;46.070;14.492;2023-04-06T09:44:02;3.90;;;2.92;;
74152;SDS011;62505;46.070;14.492;2023-04-06T09:46:31;5.55;;;3.20;;
74152;SDS011;62505;46.070;14.492;2023-04-06T09:48:59;4.00;;;2.58;;
74152;SDS011;62505;46.070;14.492;2023-04-06T09:51:28;3.83;;;2.67;;
74152;SDS011;62505;46.070;14.492;2023-04-06T09:53:57;4.53;;;2.95;;
74152;SDS011;62505;46.070;14.492;2023-04-06T09:56:28;3.78;;;2.80;;
74152;SDS011;62505;46.070;14.492;2023-04-06T09:59:05;3.60;;;2.53;;
74152;SDS011;62505;46.070;14.492;2023-04-06T10:01:37;3.95;;;2.60;;
74152;SDS011;62505;46.070;14.492;2023-04-06T10:04:13;3.45;;;2.40;;
74152;SDS011;62505;46.070;14.492;2023-04-06T10:06:50;3.70;;;2.78;;
74152;SDS011;62505;46.070;14.492;2023-04-06T10:09:18;4.47;;;2.70;;
74152;SDS011;62505;46.070;14.492;2023-04-06T10:11:53;3.78;;;2.80;;
74152;SDS011;62505;46.070;14.492;2023-04-06T10:14:21;3.70;;;2.75;;
74152;SDS011;62505;46.070;14.492;2023-04-06T10:16:49;4.22;;;2.58;;
74152;SDS011;62505;46.070;14.492;2023-04-06T10:19:16;5.10;;;2.78;;
74152;SDS011;62505;46.070;14.492;2023-04-06T10:21:48;3.22;;;2.28;;
74152;SDS011;62505;46.070;14.492;2023-04-06T10:24:20;4.20;;;2.72;;
74152;SDS011;62505;46.070;14.492;2023-04-06T10:26:57;4.47;;;2.67;;
74152;SDS011;62505;46.070;14.492;2023-04-06T10:29:25;4.18;;;2.75;;
74152;SDS011;62505;46.070;14.492;2023-04-06T10:31:52;3.95;;;2.78;;
74152;SDS011;62505;46.070;14.492;2023-04-06T10:34:20;4.97;;;2.97;;
74152;SDS011;62505;46.070;14.492;2023-04-06T10:36:47;4.63;;;2.70;;
74152;SDS011;62505;46.070;14.492;2023-04-06T10:39:14;3.58;;;2.60;;
74152;SDS011;62505;46.070;14.492;2023-04-06T10:41:52;3.08;;;2.58;;
74152;SDS011;62505;46.070;14.492;2023-04-06T10:44:21;3.08;;;2.65;;
74152;SDS011;62505;46.070;14.492;2023-04-06T10:46:52;5.05;;;3.10;;
74152;SDS011;62505;46.070;14.492;2023-04-06T10:49:20;3.70;;;2.67;;
74152;SDS011;62505;46.070;14.492;2023-04-06T10:51:51;3.67;;;2.45;;
74152;SDS011;62505;46.070;14.492;2023-04-06T10:54:20;4.03;;;2.63;;
74152;SDS011;62505;46.070;14.492;2023-04-06T10:56:49;4.20;;;2.78;;
74152;SDS011;62505;46.070;14.492;2023-04-06T10:59:18;3.08;;;2.40;;
74152;SDS011;62505;46.070;14.492;2023-04-06T11:01:48;4.90;;;2.65;;
74152;SDS011;62505;46.070;14.492;2023-04-06T11:04:16;2.92;;;2.53;;
74152;SDS011;62505;46.070;14.492;2023-04-06T11:06:46;3.25;;;2.08;;
74152;SDS011;62505;46.070;14.492;2023-04-06T11:09:22;4.13;;;2.53;;
74152;SDS011;62505;46.070;14.492;2023-04-06T11:11:51;3.35;;;2.78;;
74152;SDS011;62505;46.070;14.492;2023-04-06T11:14:18;4.47;;;2.60;;
74152;SDS011;62505;46.070;14.492;2023-04-06T11:16:47;2.80;;;2.38;;
74152;SDS011;62505;46.070;14.492;2023-04-06T11:19:15;4.50;;;2.72;;
74152;SDS011;62505;46.070;14.492;2023-04-06T11:21:42;4.38;;;2.67;;
74152;SDS011;62505;46.070;14.492;2023-04-06T11:24:13;3.40;;;2.80;;
74152;SDS011;62505;46.070;14.492;2023-04-06T11:26:42;4.00;;;2.90;;
74152;SDS011;62505;46.070;14.492;2023-04-06T11:29:10;4.90;;;2.95;;
74152;SDS011;62505;46.070;14.492;2023-04-06T11:31:45;4.65;;;2.80;;
74152;SDS011;62505;46.070;14.492;2023-04-06T11:34:15;3.13;;;2.38;;
74152;SDS011;62505;46.070;14.492;2023-04-06T11:36:44;3.67;;;2.60;;
74152;SDS011;62505;46.070;14.492;2023-04-06T11:39:13;3.75;;;2.53;;
74152;SDS011;62505;46.070;14.492;2023-04-06T11:41:47;3.58;;;2.45;;
74152;SDS011;62505;46.070;14.492;2023-04-06T11:44:14;5.35;;;2.30;;
74152;SDS011;62505;46.070;14.492;2023-04-06T11:46:52;3.78;;;2.72;;
74152;SDS011;62505;46.070;14.492;2023-04-06T11:49:19;2.78;;;1.88;;
74152;SDS011;62505;46.070;14.492;2023-04-06T11:51:46;3.40;;;2.47;;
74152;SDS011;62505;46.070;14.492;2023-04-06T11:54:13;3.47;;;2.47;;
74152;SDS011;62505;46.070;14.492;2023-04-06T11:56:42;3.63;;;2.67;;
74152;SDS011;62505;46.070;14.492;2023-04-06T11:59:12;4.13;;;2.78;;
74152;SDS011;62505;46.070;14.492;2023-04-06T12:01:44;3.05;;;2.33;;
74152;SDS011;62505;46.070;14.492;2023-04-06T12:04:13;3.35;;;2.67;;
74152;SDS011;62505;46.070;14.492;2023-04-06T12:06:40;2.75;;;2.10;;
74152;SDS011;62505;46.070;14.492;2023-04-06T12:09:07;3.40;;;2.67;;
74152;SDS011;62505;46.070;14.492;2023-04-06T12:11:34;3.45;;;2.53;;
74152;SDS011;62505;46.070;14.492;2023-04-06T12:14:01;3.17;;;2.45;;
74152;SDS011;62505;46.070;14.492;2023-04-06T12:16:29;4.78;;;2.72;;
74152;SDS011;62505;46.070;14.492;2023-04-06T12:18:57;3.88;;;2.55;;
74152;SDS011;62505;46.070;14.492;2023-04-06T12:21:26;3.47;;;2.20;;
74152;SDS011;62505;46.070;14.492;2023-04-06T12:23:53;3.20;;;2.42;;
74152;SDS011;62505;46.070;14.492;2023-04-06T12:26:20;2.13;;;1.90;;
74152;SDS011;62505;46.070;14.492;2023-04-06T12:28:47;3.22;;;2.40;;
74152;SDS011;62505;46.070;14.492;2023-04-06T12:31:15;2.65;;;2.40;;
74152;SDS011;62505;46.070;14.492;2023-04-06T12:33:42;3.13;;;2.45;;
74152;SDS011;62505;46.070;14.492;2023-04-06T12:36:11;3.70;;;2.38;;
74152;SDS011;62505;46.070;14.492;2023-04-06T12:38:40;3.50;;;2.40;;
74152;SDS011;62505;46.070;14.492;2023-04-06T12:41:07;3.65;;;2.67;;
74152;SDS011;62505;46.070;14.492;2023-04-06T12:43:34;4.53;;;2.92;;
74152;SDS011;62505;46.070;14.492;2023-04-06T12:46:01;3.72;;;2.47;;
74152;SDS011;62505;46.070;14.492;2023-04-06T12:48:28;4.22;;;2.50;;
74152;SDS011;62505;46.070;14.492;2023-04-06T12:50:57;4.00;;;2.42;;
74152;SDS011;62505;46.070;14.492;2023-04-06T12:53:24;2.58;;;2.15;;
74152;SDS011;62505;46.070;14.492;2023-04-06T12:55:53;3.78;;;2.53;;
74152;SDS011;62505;46.070;14.492;2023-04-06T12:58:21;2.97;;;2.28;;
74152;SDS011;62505;46.070;14.492;2023-04-06T13:00:49;4.43;;;2.70;;
74152;SDS011;62505;46.070;14.492;2023-04-06T13:03:16;3.85;;;2.63;;
74152;SDS011;62505;46.070;14.492;2023-04-06T13:05:44;2.80;;;2.42;;
74152;SDS011;62505;46.070;14.492;2023-04-06T13:08:11;3.63;;;2.30;;
74152;SDS011;62505;46.070;14.492;2023-04-06T13:10:42;3.75;;;2.15;;
74152;SDS011;62505;46.070;14.492;2023-04-06T13:13:11;2.60;;;2.30;;
74152;SDS011;62505;46.070;14.492;2023-04-06T13:15:38;2.83;;;2.15;;
74152;SDS011;62505;46.070;14.492;2023-04-06T13:18:05;5.10;;;2.78;;
74152;SDS011;62505;46.070;14.492;2023-04-06T13:20:32;4.15;;;2.85;;
74152;SDS011;62505;46.070;14.492;2023-04-06T13:22:59;3.00;;;2.45;;
74152;SDS011;62505;46.070;14.492;2023-04-06T13:25:26;3.30;;;2.38;;
74152;SDS011;62505;46.070;14.492;2023-04-06T13:27:54;2.78;;;2.28;;
74152;SDS011;62505;46.070;14.492;2023-04-06T13:30:23;2.58;;;2.13;;
74152;SDS011;62505;46.070;14.492;2023-04-06T13:32:50;3.30;;;2.22;;
74152;SDS011;62505;46.070;14.492;2023-04-06T13:35:17;2.90;;;2.00;;
74152;SDS011;62505;46.070;14.492;2023-04-06T13:37:44;2.95;;;2.35;;
74152;SDS011;62505;46.070;14.492;2023-04-06T13:40:11;3.00;;;2.17;;
74152;SDS011;62505;46.070;14.492;2023-04-06T13:42:38;3.20;;;1.95;;
74152;SDS011;62505;46.070;14.492;2023-04-06T13:45:09;3.47;;;2.40;;
74152;SDS011;62505;46.070;14.492;2023-04-06T13:47:38;3.55;;;2.28;;
74152;SDS011;62505;46.070;14.492;2023-04-06T13:50:06;3.25;;;2.78;;
74152;SDS011;62505;46.070;14.492;2023-04-06T13:52:34;3.63;;;2.28;;
74152;SDS011;62505;46.070;14.492;2023-04-06T13:55:02;3.40;;;2.50;;
74152;SDS011;62505;46.070;14.492;2023-04-06T13:57:29;3.20;;;2.60;;
74152;SDS011;62505;46.070;14.492;2023-04-06T13:59:56;2.80;;;2.10;;
74152;SDS011;62505;46.070;14.492;2023-04-06T14:02:23;4.05;;;2.30;;
74152;SDS011;62505;46.070;14.492;2023-04-06T14:04:53;3.25;;;2.38;;
74152;SDS011;62505;46.070;14.492;2023-04-06T14:07:20;4.05;;;2.35;;
74152;SDS011;62505;46.070;14.492;2023-04-06T14:09:47;3.05;;;2.45;;
74152;SDS011;62505;46.070;14.492;2023-04-06T14:12:14;4.55;;;2.75;;
74152;SDS011;62505;46.070;14.492;2023-04-06T14:14:41;3.28;;;2.40;;
74152;SDS011;62505;46.070;14.492;2023-04-06T14:17:08;4.10;;;2.03;;
74152;SDS011;62505;46.070;14.492;2023-04-06T14:19:35;2.47;;;1.92;;
74152;SDS011;62505;46.070;14.492;2023-04-06T14:22:04;3.13;;;2.45;;
74152;SDS011;62505;46.070;14.492;2023-04-06T14:24:31;2.42;;;2.08;;
74152;SDS011;62505;46.070;14.492;2023-04-06T14:26:58;3.42;;;2.58;;
74152;SDS011;62505;46.070;14.492;2023-04-06T14:29:26;2.55;;;2.20;;
74152;SDS011;62505;46.070;14.492;2023-04-06T14:31:53;3.58;;;2.20;;
74152;SDS011;62505;46.070;14.492;2023-04-06T14:34:24;2.47;;;1.77;;
74152;SDS011;62505;46.070;14.492;2023-04-06T14:36:51;2.22;;;2.03;;